Nederlandse vliegveldverwachtingen (TAF)

Luchtvaartmeteorologische informatie voor operationeel gebruik en vluchtvoorbereiding is beschikbaar op www.luchtvaartmeteo.nl.

ZCZC
FC080500 EHVK RRA VOLKEL/VOLKEL   NLD   21 m.
TAF EHVK 080513Z 0806/0818 27003KT 6000 BKN035
    PROB30 TEMPO 0806/0808 4000 BR=

ZCZC
FT080500 EHLE     LELYSTAD/LELYSTAD   NLD   -3 m.
TAF EHLE 080516Z 0806/0912 VRB03KT 9999 BKN025
    TEMPO 0806/0810 5000 BR BKN008
    BECMG 0811/0814 26008KT
    BECMG 0815/0818 22009KT 6000 -RADZ BKN014
    TEMPO 0820/0903 3500 RADZ BKN008
    BECMG 0901/0904 27009KT NSW BKN008
    PROB40 0902/0908 3000 BR BKN003
    BECMG 0908/0911 32010KT 9999 BKN014=

ZCZC
FT080500 EHAM     AMSTERDAM/SCHIPHOL   NLD   -3 m.
TAF EHAM 080515Z 0806/0912 26008KT 9999 BKN025
    BECMG 0815/0818 22009KT 6000 -RADZ BKN014
    TEMPO 0820/0903 3500 RADZ BKN008
    BECMG 0901/0904 30010KT 9999 NSW BKN008
    PROB30 TEMPO 0903/0909 5000 -SHRA BKN008TCU
    BECMG 0908/0911 BKN014=

ZCZC
FT080500 EHRD     ROTTERDAM/THE HAGUE AIRPORT   NLD   -5 m.
TAF EHRD 080516Z 0806/0912 26008KT 9999 BKN025
    BECMG 0816/0819 22009KT 6000 -RADZ BKN014
    TEMPO 0820/0903 3500 RADZ BKN008
    BECMG 0901/0904 30010KT 9999 NSW BKN008
    PROB30 TEMPO 0903/0910 5000 -SHRA BKN008TCU
    BECMG 0908/0911 BKN014=

ZCZC
FT080500 EHGG     GRONINGEN/EELDE   NLD   5 m.
TAF EHGG 080516Z 0806/0912 08005KT 9999 BKN020
    PROB30 0806/0809 0400 FG VV001
    BECMG 0814/0817 7000 -RADZ BKN012
    BECMG 0817/0820 21010KT BKN008
    TEMPO 0820/0907 4000 RADZ -RASN BKN004
    PROB40 0900/0910 2000 BKN002=

ZCZC
FT080500 EHBK     MAASTRICHT/MAASTRICHT-AACHEN   NLD   114 m.
TAF EHBK 080516Z 0806/0912 28003KT 9999 BKN040
    PROB30 0806/0809 4000 BR
    BECMG 0900/0903 24010KT 7000 -RADZ BKN012
    TEMPO 0903/0912 4000 RADZ -RASN BKN008
    PROB30 0906/0911 2500 BR BKN004
    BECMG 0909/0912 27010KT=

ZCZC
FT080500 EHEH     EINDHOVEN/EINDHOVEN   NLD   22 m.
TAF EHEH 080513Z 0806/0912 27003KT 6000 SCT045 BKN065
    PROB30 TEMPO 0806/0808 4000 BR
    BECMG 0901/0903 SCT012 BKN018
    TEMPO 0903/0907 3500 RADZ SCT005 BKN006
    BECMG 0910/0912 SCT015 BKN020=

ZCZC
FC080900 EHKD RRA DE KOOY/DE KOOY   NLD   1 m.
TAF EHKD 080939Z 0810/0822 25005KT 9999 SCT020 BKN060
    PROB30 TEMPO 0810/0813 SCT012 BKN020
    BECMG 0811/0814 22010KT BKN015 OVC020
    TEMPO 0813/0822 4500 -RA SCT008 BKN012
    PROB40 TEMPO 0816/0822 3000 DZRA SCT003 BKN006=

ZCZC
FC080900 EHGR RRB GILZE-RIJEN/GILZE-RIJEN   NLD   14 m.
TAF EHGR 080920Z 0810/0822 30005KT CAVOK=

ZCZC
FC080900 EHLW RRC LEEUWARDEN/LEEUWARDEN   NLD   1 m.
TAF EHLW 080925Z 0810/0822 19004KT 9999 FEW020 BKN040
    PROB40 TEMPO 0810/0812 SCT012 BKN020
    BECMG 0813/0815 BKN015 OVC020
    TEMPO 0815/0822 4500 -RA SCT008 BKN012
    BECMG 0818/0821 21008KT
    PROB40 TEMPO 0818/0822 3000 DZRA SCT003 BKN006=

ZCZC
FC080900 EHWO RRD WOENSDRECHT/WOENSDRECHT   NLD   19 m.
TAF EHWO 080922Z 0810/0822 28007KT CAVOK
    BECMG 0819/0822 23006KT SCT015 BKN020=

08/03/2021 11.00 uur LT